Time;durP1;ratioP1;P1;durP2;ratioP2;P2;SDS_P1;SDS_P2;PMS_P1;PMS_P2;Temp;Humidity;BMP_temperature;BMP_pressure;BME280_temperature;BME280_humidity;BME280_pressure;Samples;Min_cycle;Max_cycle;Signal;HPM_P1;HPM_P2
2022/11/11 06:35:37;;;;;;;25.38;13.55;;;6.40;99.90;;;;;;4867455;29;20055;-82
2022/11/11 06:38:05;;;;;;;29.02;15.80;;;6.50;99.90;;;;;;4903699;29;20055;-85
2022/11/11 06:40:32;;;;;;;22.48;14.70;;;6.50;99.90;;;;;;4868988;29;20049;-82
2022/11/11 06:42:59;;;;;;;24.40;16.05;;;6.60;99.90;;;;;;4877006;29;20052;-80
2022/11/11 06:45:29;;;;;;;26.60;14.15;;;6.60;99.90;;;;;;4874680;29;20060;-80
2022/11/11 06:47:56;;;;;;;20.20;11.95;;;6.70;99.90;;;;;;4881083;29;20514;-81
2022/11/11 06:50:22;;;;;;;18.80;11.85;;;6.80;99.90;;;;;;4874141;29;20058;-82
2022/11/11 06:52:49;;;;;;;21.65;11.77;;;6.80;99.90;;;;;;4866013;29;20060;-80
2022/11/11 06:55:16;;;;;;;19.73;11.98;;;6.90;99.90;;;;;;4872515;29;20064;-79
2022/11/11 06:57:43;;;;;;;20.33;11.32;;;7.00;99.90;;;;;;4873861;29;20050;-80
2022/11/11 07:00:10;;;;;;;19.35;10.88;;;7.00;99.90;;;;;;4872020;29;20070;-80
2022/11/11 07:02:37;;;;;;;28.02;10.73;;;7.10;99.90;;;;;;4877764;29;20048;-80
2022/11/11 07:05:04;;;;;;;14.70;8.25;;;7.10;99.90;;;;;;4872498;29;20054;-80
2022/11/11 07:07:31;;;;;;;10.98;7.18;;;7.20;99.90;;;;;;4883301;29;20058;-80
2022/11/11 07:09:57;;;;;;;14.23;7.30;;;7.20;99.90;;;;;;4885298;29;20067;-81
2022/11/11 07:12:24;;;;;;;18.27;8.07;;;7.30;99.90;;;;;;4868485;29;20056;-80
2022/11/11 07:14:51;;;;;;;14.98;7.82;;;7.30;99.90;;;;;;4886714;29;20061;-80
2022/11/11 07:17:17;;;;;;;13.43;6.90;;;7.30;99.90;;;;;;4881863;29;20063;-80
2022/11/11 07:19:44;;;;;;;10.32;6.18;;;7.40;99.90;;;;;;4882924;29;20062;-80
2022/11/11 07:22:11;;;;;;;14.18;6.95;;;7.40;99.90;;;;;;4879396;29;22461;-81
2022/11/11 07:24:38;;;;;;;32.00;10.25;;;7.50;99.90;;;;;;4875875;29;20075;-81
2022/11/11 07:27:04;;;;;;;70.72;11.30;;;7.40;99.90;;;;;;4871953;29;20396;-80
2022/11/11 07:29:31;;;;;;;42.17;9.07;;;7.50;99.90;;;;;;4878973;29;20061;-81
2022/11/11 07:31:58;;;;;;;31.33;9.13;;;7.50;99.90;;;;;;4878876;29;20056;-80
2022/11/11 07:34:24;;;;;;;17.13;9.07;;;7.50;99.90;;;;;;4867707;29;20057;-80
2022/11/11 07:36:51;;;;;;;16.35;8.10;;;7.50;99.90;;;;;;4873817;29;20064;-80
2022/11/11 07:39:18;;;;;;;15.32;8.65;;;7.50;99.90;;;;;;4876200;29;20064;-80
2022/11/11 07:41:44;;;;;;;14.20;7.47;;;7.50;99.90;;;;;;4879740;29;20086;-80
2022/11/11 07:44:11;;;;;;;19.00;9.60;;;7.50;99.90;;;;;;4875785;29;20049;-80
2022/11/11 07:46:38;;;;;;;14.23;7.97;;;7.50;99.90;;;;;;4873091;29;20082;-80
2022/11/11 07:49:04;;;;;;;14.63;9.25;;;7.50;99.90;;;;;;4876057;29;20404;-80
2022/11/11 07:51:31;;;;;;;11.85;7.97;;;7.50;99.90;;;;;;4874902;29;20073;-80
2022/11/11 07:53:57;;;;;;;13.60;7.05;;;7.60;99.90;;;;;;4875136;29;20059;-79
2022/11/11 07:56:24;;;;;;;13.20;7.25;;;7.50;99.90;;;;;;4881349;29;20059;-81
2022/11/11 07:58:51;;;;;;;9.10;5.90;;;7.60;99.90;;;;;;4873399;29;20619;-80
2022/11/11 08:01:18;;;;;;;11.43;5.15;;;7.60;99.90;;;;;;4871590;29;20105;-80
2022/11/11 08:03:50;;;;;;;8.32;4.95;;;7.60;99.90;;;;;;4872857;29;20053;-80
2022/11/11 08:06:21;;;;;;;11.55;5.60;;;7.60;99.90;;;;;;4876987;29;20049;-81
2022/11/11 08:08:48;;;;;;;17.40;7.90;;;7.70;99.90;;;;;;4874318;29;20056;-80
2022/11/11 08:11:16;;;;;;;11.20;7.25;;;7.70;99.90;;;;;;4880753;29;20059;-80
2022/11/11 08:13:43;;;;;;;14.70;8.32;;;7.70;99.90;;;;;;4875811;29;20049;-80
2022/11/11 08:16:11;;;;;;;11.88;7.35;;;7.80;99.90;;;;;;4874874;29;20080;-81
2022/11/11 08:18:38;;;;;;;10.75;7.00;;;7.80;99.90;;;;;;4877035;29;20056;-81
2022/11/11 08:21:05;;;;;;;11.98;8.00;;;7.80;99.90;;;;;;4870089;29;20049;-80
2022/11/11 08:23:32;;;;;;;11.90;8.07;;;7.90;99.90;;;;;;4878886;29;20055;-81
2022/11/11 08:26:22;;;;;;;12.25;6.88;;;7.90;99.90;;;;;;4878502;29;20094;-81
2022/11/11 08:28:55;;;;;;;13.73;6.57;;;7.90;99.90;;;;;;4882022;29;20051;-80
2022/11/11 08:31:22;;;;;;;8.88;7.03;;;8.00;99.90;;;;;;4879468;29;20045;-80
2022/11/11 08:33:49;;;;;;;11.73;8.23;;;8.00;99.90;;;;;;4878134;29;20057;-84
2022/11/11 08:36:16;;;;;;;11.95;7.82;;;8.00;99.90;;;;;;4884068;29;20106;-84
2022/11/11 08:38:46;;;;;;;13.32;8.13;;;8.10;99.90;;;;;;4884668;29;20076;-84
2022/11/11 08:41:13;;;;;;;17.25;9.95;;;8.10;99.90;;;;;;4877906;29;20050;-82
2022/11/11 08:43:40;;;;;;;16.05;9.45;;;8.10;99.90;;;;;;4885195;29;20053;-80
2022/11/11 08:46:07;;;;;;;15.48;9.75;;;8.10;99.90;;;;;;4897441;29;20136;-80
2022/11/11 08:48:33;;;;;;;12.32;9.57;;;8.10;99.90;;;;;;4884801;29;20081;-80
2022/11/11 08:51:00;;;;;;;15.05;10.55;;;8.10;99.90;;;;;;4879159;29;20049;-82
2022/11/11 08:53:27;;;;;;;16.33;10.40;;;8.20;99.90;;;;;;4880791;29;20503;-81
2022/11/11 08:55:54;;;;;;;14.73;9.80;;;8.20;99.90;;;;;;4875219;29;20132;-81
2022/11/11 08:58:21;;;;;;;12.27;9.63;;;8.30;99.90;;;;;;4875796;29;20137;-81
2022/11/11 09:00:47;;;;;;;17.23;11.55;;;8.30;99.90;;;;;;4881088;29;20049;-81
2022/11/11 09:03:17;;;;;;;18.08;10.48;;;8.40;99.90;;;;;;4878226;29;20053;-79
2022/11/11 09:05:46;;;;;;;12.95;8.85;;;8.50;99.90;;;;;;4874599;29;20045;-79
2022/11/11 09:08:13;;;;;;;13.63;8.43;;;8.60;99.90;;;;;;4880145;29;20056;-80
2022/11/11 09:10:42;;;;;;;13.20;8.80;;;8.70;99.90;;;;;;4881917;29;20113;-81
2022/11/11 09:13:08;;;;;;;14.73;9.20;;;8.80;99.90;;;;;;4879778;29;20053;-80
2022/11/11 09:15:35;;;;;;;14.35;7.90;;;8.80;99.90;;;;;;4880387;29;20418;-81
2022/11/11 09:18:02;;;;;;;11.50;8.50;;;8.90;99.90;;;;;;4887434;29;20057;-82
2022/11/11 09:20:29;;;;;;;12.38;8.68;;;9.00;99.90;;;;;;4872734;29;20054;-79
2022/11/11 09:22:56;;;;;;;15.48;9.77;;;9.00;99.90;;;;;;4878377;29;20048;-80
2022/11/11 09:25:23;;;;;;;17.33;11.63;;;9.10;99.90;;;;;;4878033;29;20050;-82
2022/11/11 09:27:56;;;;;;;12.25;9.27;;;9.10;99.90;;;;;;4877437;29;20041;-81
2022/11/11 09:30:24;;;;;;;14.75;8.32;;;9.20;99.90;;;;;;4872303;29;20049;-79
2022/11/11 09:32:51;;;;;;;14.27;8.65;;;9.20;99.90;;;;;;4877779;29;20549;-80
2022/11/11 09:35:18;;;;;;;13.63;9.15;;;9.30;99.90;;;;;;4878770;29;20925;-81
2022/11/11 09:37:56;;;;;;;14.88;9.32;;;9.30;99.90;;;;;;4881863;29;20501;-79
2022/11/11 09:40:25;;;;;;;12.95;9.00;;;9.40;99.90;;;;;;4880201;29;20062;-81
2022/11/11 09:43:29;;;;;;;15.65;9.35;;;9.50;99.90;;;;;;4875508;29;20049;-82
2022/11/11 09:46:11;;;;;;;12.40;8.73;;;9.50;99.90;;;;;;4878367;29;20064;-81
2022/11/11 09:49:02;;;;;;;11.82;8.75;;;9.60;99.90;;;;;;4873854;29;20053;-82
2022/11/11 09:51:39;;;;;;;12.98;8.65;;;9.60;99.90;;;;;;4872643;29;20056;-82
2022/11/11 09:54:16;;;;;;;14.40;8.70;;;9.60;99.90;;;;;;4875939;29;20136;-81
2022/11/11 09:56:48;;;;;;;11.80;8.95;;;9.70;99.90;;;;;;4882471;29;20091;-80
2022/11/11 09:59:22;;;;;;;11.77;7.20;;;9.70;99.90;;;;;;4877805;29;20045;-81
2022/11/11 10:01:54;;;;;;;17.48;8.80;;;9.80;99.90;;;;;;4882431;29;20060;-81
2022/11/11 10:04:50;;;;;;;12.05;8.43;;;9.80;99.90;;;;;;4892278;29;20083;-81
2022/11/11 10:07:37;;;;;;;14.65;8.40;;;9.80;99.90;;;;;;4877211;29;20049;-83
2022/11/11 10:10:49;;;;;;;13.32;7.90;;;9.90;99.90;;;;;;4880712;29;20052;-80
2022/11/11 10:13:22;;;;;;;13.95;7.05;;;9.90;99.90;;;;;;4877757;29;20050;-80
2022/11/11 10:15:49;;;;;;;13.63;7.45;;;10.00;99.90;;;;;;4881966;29;20061;-82
2022/11/11 10:18:21;;;;;;;14.30;7.50;;;10.00;99.90;;;;;;4879410;29;20061;-80
2022/11/11 10:20:54;;;;;;;12.02;7.65;;;10.00;99.90;;;;;;4877812;29;20088;-80
2022/11/11 10:23:30;;;;;;;10.98;6.65;;;10.10;99.90;;;;;;4863568;29;20140;-81
2022/11/11 10:26:11;;;;;;;12.25;6.10;;;10.10;99.90;;;;;;4874224;29;20055;-82
2022/11/11 10:28:42;;;;;;;9.82;6.63;;;10.10;99.90;;;;;;4876656;29;20143;-81
2022/11/11 10:31:19;;;;;;;8.52;6.55;;;10.20;99.90;;;;;;4877101;29;20052;-82
2022/11/11 10:33:59;;;;;;;15.25;8.00;;;10.20;99.90;;;;;;4881787;29;20068;-82
2022/11/11 10:36:28;;;;;;;11.77;7.75;;;10.20;99.90;;;;;;4883972;29;20092;-80
2022/11/11 10:39:04;;;;;;;11.00;8.55;;;10.30;99.90;;;;;;4882844;29;20049;-81
2022/11/11 10:41:48;;;;;;;13.82;9.43;;;10.30;99.90;;;;;;4874409;29;20057;-80
2022/11/11 10:44:19;;;;;;;13.10;8.77;;;10.30;99.90;;;;;;4874032;29;20053;-80
2022/11/11 10:47:16;;;;;;;14.50;10.10;;;10.40;99.90;;;;;;4873218;29;20052;-80
2022/11/11 10:49:57;;;;;;;16.13;8.90;;;10.40;99.90;;;;;;4869570;29;20053;-81
2022/11/11 10:52:40;;;;;;;13.77;8.02;;;10.40;99.90;;;;;;4873754;29;20062;-81
2022/11/11 10:55:21;;;;;;;13.43;9.43;;;10.50;99.90;;;;;;4874026;29;20068;-80
2022/11/11 10:58:01;;;;;;;14.63;9.00;;;10.60;99.90;;;;;;4874716;29;20140;-80
2022/11/11 11:00:36;;;;;;;14.38;9.18;;;10.60;99.90;;;;;;4874720;29;20106;-80
2022/11/11 11:03:31;;;;;;;17.58;10.55;;;10.60;99.90;;;;;;4872864;29;20057;-81
2022/11/11 11:06:17;;;;;;;15.05;10.52;;;10.60;99.90;;;;;;4887724;29;20057;-80
2022/11/11 11:08:48;;;;;;;16.13;11.00;;;10.60;99.90;;;;;;4875566;29;20045;-81
2022/11/11 11:11:55;;;;;;;15.32;9.85;;;10.70;99.90;;;;;;4873814;29;20056;-80
2022/11/11 11:14:32;;;;;;;15.23;10.10;;;10.70;99.90;;;;;;4872534;29;20054;-81
2022/11/11 11:17:07;;;;;;;15.07;10.35;;;10.70;99.90;;;;;;4881068;29;20045;-80
2022/11/11 11:19:34;;;;;;;14.80;10.23;;;10.70;99.90;;;;;;4874736;29;20503;-79
2022/11/11 11:22:02;;;;;;;13.45;11.02;;;10.80;99.90;;;;;;4878634;29;20064;-80
2022/11/11 11:24:33;;;;;;;18.58;11.18;;;10.80;99.90;;;;;;4875272;29;20053;-79
2022/11/11 11:27:03;;;;;;;19.20;12.13;;;10.80;99.90;;;;;;4875426;29;20049;-80
2022/11/11 11:29:43;;;;;;;16.52;10.85;;;10.80;99.90;;;;;;4864722;29;20049;-79
2022/11/11 11:32:43;;;;;;;16.88;10.40;;;10.90;99.90;;;;;;4864786;29;20059;-80
2022/11/11 11:35:27;;;;;;;16.42;10.35;;;10.90;99.90;;;;;;4865027;29;20122;-81
2022/11/11 11:37:54;;;;;;;14.48;10.25;;;10.90;99.90;;;;;;4870567;29;20053;-79
2022/11/11 11:40:21;;;;;;;21.10;10.32;;;10.90;99.90;;;;;;4875200;29;20140;-81
2022/11/11 11:42:48;;;;;;;12.88;9.77;;;10.90;99.90;;;;;;4872506;29;20053;-79
2022/11/11 11:45:14;;;;;;;15.73;10.60;;;11.00;99.90;;;;;;4875329;29;20140;-81
2022/11/11 11:47:53;;;;;;;14.55;10.45;;;11.00;99.90;;;;;;4872424;29;20079;-81
2022/11/11 11:50:50;;;;;;;17.85;10.50;;;11.00;99.90;;;;;;4872347;29;20101;-81
2022/11/11 11:53:50;;;;;;;14.43;11.13;;;11.00;99.90;;;;;;4873815;29;20067;-80
2022/11/11 11:56:25;;;;;;;15.52;10.32;;;11.10;99.90;;;;;;4886818;29;20519;-79
2022/11/11 11:59:17;;;;;;;16.08;9.65;;;11.10;99.90;;;;;;4884226;29;20061;-79
2022/11/11 12:02:06;;;;;;;18.50;11.68;;;11.20;99.90;;;;;;4887228;29;20108;-81
2022/11/11 12:04:50;;;;;;;17.10;10.40;;;11.20;99.90;;;;;;4883826;29;20147;-81
2022/11/11 12:07:31;;;;;;;15.20;9.73;;;11.30;99.90;;;;;;4882710;29;20045;-81
2022/11/11 12:10:07;;;;;;;16.58;9.95;;;11.30;99.90;;;;;;4879179;29;20660;-80
2022/11/11 12:12:38;;;;;;;17.42;9.90;;;11.30;99.90;;;;;;4875026;29;20057;-80
2022/11/11 12:15:29;;;;;;;20.38;9.93;;;11.30;99.90;;;;;;4874433;29;20049;-81
2022/11/11 12:18:12;;;;;;;13.55;9.25;;;11.30;99.90;;;;;;4870863;29;20057;-78
2022/11/11 12:20:56;;;;;;;13.57;8.73;;;11.30;99.90;;;;;;4872156;29;20057;-80
2022/11/11 12:23:50;;;;;;;15.50;8.63;;;11.40;99.90;;;;;;4871683;29;20049;-80
2022/11/11 12:26:35;;;;;;;10.85;8.27;;;11.40;99.90;;;;;;4863261;29;20054;-80
2022/11/11 12:29:09;;;;;;;14.52;8.85;;;11.40;99.90;;;;;;4863600;29;20049;-81
2022/11/11 12:31:36;;;;;;;12.23;8.25;;;11.40;99.90;;;;;;4862794;29;20056;-80
2022/11/11 12:34:23;;;;;;;16.10;8.77;;;11.50;99.90;;;;;;4869583;29;20057;-82
2022/11/11 12:37:02;;;;;;;12.48;8.52;;;11.50;99.90;;;;;;4877979;29;20058;-81
2022/11/11 12:39:57;;;;;;;12.90;8.38;;;11.50;99.90;;;;;;4870097;29;20114;-80
2022/11/11 12:42:29;;;;;;;15.30;8.95;;;11.50;99.90;;;;;;4873118;29;20059;-80
2022/11/11 12:45:20;;;;;;;13.55;7.75;;;11.50;99.90;;;;;;4870817;29;20546;-79
2022/11/11 12:48:19;;;;;;;12.57;8.57;;;11.50;99.90;;;;;;4871514;29;20050;-81
2022/11/11 12:50:50;;;;;;;10.55;8.10;;;11.60;99.90;;;;;;4863271;29;20136;-78
2022/11/11 12:53:26;;;;;;;10.80;7.72;;;11.60;99.90;;;;;;4863207;29;20061;-79
2022/11/11 12:56:15;;;;;;;9.93;8.02;;;11.60;99.90;;;;;;4862017;29;20125;-81
2022/11/11 12:59:13;;;;;;;13.43;8.38;;;11.60;99.90;;;;;;4870965;29;20539;-79
2022/11/11 13:01:46;;;;;;;13.45;8.57;;;11.70;99.90;;;;;;4871434;29;20148;-80
2022/11/11 13:04:41;;;;;;;12.45;7.72;;;11.70;99.90;;;;;;4871502;29;20057;-79
2022/11/11 13:07:53;;;;;;;9.95;7.32;;;11.80;99.90;;;;;;4872900;29;20050;-79
2022/11/11 13:10:50;;;;;;;9.15;7.30;;;11.80;99.90;;;;;;4873026;29;20053;-81
2022/11/11 13:14:14;;;;;;;11.93;7.80;;;11.80;99.90;;;;;;4870214;29;20522;-81
2022/11/11 13:16:42;;;;;;;10.95;7.47;;;11.90;99.90;;;;;;4841844;29;20054;-80
2022/11/11 13:19:17;;;;;;;10.90;6.93;;;11.90;99.90;;;;;;4842047;29;20064;-79
2022/11/11 13:22:07;;;;;;;9.85;7.55;;;11.90;99.90;;;;;;4856307;29;20121;-79
2022/11/11 13:24:34;;;;;;;11.77;8.18;;;12.00;99.90;;;;;;4862382;29;20046;-81
2022/11/11 13:27:13;;;;;;;13.15;8.13;;;12.00;99.90;;;;;;4862172;29;20057;-82
2022/11/11 13:29:45;;;;;;;12.70;7.47;;;12.00;99.90;;;;;;4863534;29;20057;-81
2022/11/11 13:32:15;;;;;;;11.57;7.78;;;11.90;99.90;;;;;;4869420;29;20397;-80
2022/11/11 13:34:42;;;;;;;13.45;9.00;;;11.90;99.90;;;;;;4871536;29;20061;-80
2022/11/11 13:37:23;;;;;;;11.88;7.20;;;11.90;99.90;;;;;;4874871;29;20064;-80
2022/11/11 13:39:51;;;;;;;14.00;8.25;;;11.90;99.90;;;;;;4874704;29;20050;-80
2022/11/11 13:42:29;;;;;;;14.52;8.27;;;11.90;99.90;;;;;;4875665;29;20049;-78
2022/11/11 13:45:01;;;;;;;14.43;9.70;;;11.90;99.90;;;;;;4875883;29;20046;-81
2022/11/11 13:47:34;;;;;;;14.80;9.15;;;11.90;99.90;;;;;;4874854;29;20058;-80
2022/11/11 13:50:08;;;;;;;14.13;9.55;;;11.90;99.90;;;;;;4872679;29;20049;-80
2022/11/11 13:52:39;;;;;;;10.82;8.80;;;11.90;99.90;;;;;;4874575;29;20482;-80
2022/11/11 13:55:47;;;;;;;10.02;7.97;;;11.90;99.90;;;;;;4875740;29;20651;-81
2022/11/11 13:58:24;;;;;;;12.23;8.23;;;11.80;99.90;;;;;;4872340;29;20053;-79
2022/11/11 14:01:04;;;;;;;14.63;7.75;;;11.80;99.90;;;;;;4887725;29;20050;-80
2022/11/11 14:03:56;;;;;;;16.98;8.18;;;11.80;99.90;;;;;;4874205;29;20120;-82
2022/11/11 14:06:46;;;;;;;10.98;7.03;;;11.80;99.90;;;;;;4874636;29;20050;-82
2022/11/11 14:09:53;;;;;;;12.73;8.43;;;11.80;99.90;;;;;;4872461;29;20156;-80
2022/11/11 14:12:22;;;;;;;13.48;7.38;;;11.80;99.90;;;;;;4875920;29;20067;-79
2022/11/11 14:14:55;;;;;;;11.00;7.45;;;11.70;99.90;;;;;;4874290;29;20049;-81
2022/11/11 14:17:22;;;;;;;13.48;7.22;;;11.70;99.90;;;;;;4876669;29;20067;-81
2022/11/11 14:19:49;;;;;;;10.75;7.18;;;11.70;99.90;;;;;;4873744;29;20049;-81
2022/11/11 14:22:33;;;;;;;12.93;8.38;;;11.70;99.90;;;;;;4875022;29;20068;-81
2022/11/11 14:25:23;;;;;;;10.73;7.68;;;11.70;99.90;;;;;;4879842;29;20457;-81
2022/11/11 14:27:50;;;;;;;17.70;8.25;;;11.70;99.90;;;;;;4879846;29;20068;-81
2022/11/11 14:30:38;;;;;;;15.57;9.23;;;11.70;99.90;;;;;;4883482;29;20059;-79
2022/11/11 14:33:34;;;;;;;14.60;8.57;;;11.70;99.90;;;;;;4883740;29;20057;-80
2022/11/11 14:36:25;;;;;;;10.75;8.25;;;11.60;99.90;;;;;;4859653;29;20389;-80
2022/11/11 14:39:32;;;;;;;13.20;8.38;;;11.60;99.90;;;;;;4874163;29;20057;-79
2022/11/11 14:41:59;;;;;;;16.52;8.32;;;11.60;99.90;;;;;;4872321;29;20054;-79
2022/11/11 14:44:26;;;;;;;14.50;8.88;;;11.60;99.90;;;;;;4880190;29;20049;-80
2022/11/11 14:47:02;;;;;;;13.18;8.70;;;11.60;99.90;;;;;;4871980;29;20054;-80
2022/11/11 14:49:52;;;;;;;11.85;8.50;;;11.60;99.90;;;;;;4872202;29;20507;-81
2022/11/11 14:53:00;;;;;;;11.60;8.50;;;11.50;99.90;;;;;;4871641;29;20057;-80
2022/11/11 14:55:30;;;;;;;12.25;8.73;;;11.50;99.90;;;;;;4871522;29;20385;-79
2022/11/11 14:58:13;;;;;;;11.75;8.85;;;11.50;99.90;;;;;;4873700;29;20057;-80
2022/11/11 15:01:25;;;;;;;13.20;8.55;;;11.40;99.90;;;;;;4873672;29;20051;-80
2022/11/11 15:03:53;;;;;;;13.35;8.43;;;11.40;99.90;;;;;;4866835;29;20180;-78
2022/11/11 15:06:44;;;;;;;14.30;8.70;;;11.40;99.90;;;;;;4878078;29;20054;-80
2022/11/11 15:09:26;;;;;;;16.75;9.20;;;11.40;99.90;;;;;;4872547;29;20117;-80
2022/11/11 15:12:01;;;;;;;12.75;8.85;;;11.30;99.90;;;;;;4872630;29;20433;-80
2022/11/11 15:14:42;;;;;;;17.98;9.65;;;11.20;99.90;;;;;;4873867;29;20053;-81
2022/11/11 15:17:49;;;;;;;19.00;12.02;;;11.20;99.90;;;;;;4875953;29;20053;-81
2022/11/11 15:20:25;;;;;;;23.83;13.35;;;11.10;99.90;;;;;;4868749;29;20052;-81
2022/11/11 15:23:10;;;;;;;24.45;15.15;;;11.10;99.90;;;;;;4888042;29;20053;-80
2022/11/11 15:26:06;;;;;;;26.73;16.50;;;11.10;99.90;;;;;;4872648;29;20057;-82
2022/11/11 15:28:57;;;;;;;24.17;15.55;;;11.00;99.90;;;;;;4874445;29;20061;-80
2022/11/11 15:31:49;;;;;;;25.35;13.45;;;11.00;99.90;;;;;;4873317;29;20053;-82
2022/11/11 15:34:39;;;;;;;18.70;11.70;;;10.90;99.90;;;;;;4873175;29;20469;-82
2022/11/11 15:37:18;;;;;;;17.90;11.05;;;10.80;99.90;;;;;;4875808;29;20537;-81
2022/11/11 15:39:54;;;;;;;17.48;11.52;;;10.80;99.90;;;;;;4873355;29;20136;-80
2022/11/11 15:42:36;;;;;;;18.65;11.88;;;10.70;99.90;;;;;;4880164;29;20053;-82
2022/11/11 15:45:18;;;;;;;16.80;12.00;;;10.70;99.90;;;;;;4875472;29;20492;-79
2022/11/11 15:47:47;;;;;;;18.50;12.82;;;10.60;99.90;;;;;;4874185;29;20424;-80
2022/11/11 15:50:35;;;;;;;22.08;13.77;;;10.60;99.90;;;;;;4882992;29;20061;-80
2022/11/11 15:53:05;;;;;;;66.60;32.65;;;10.50;99.90;;;;;;4874136;29;20065;-82
2022/11/11 15:55:39;;;;;;;69.82;34.83;;;10.50;99.90;;;;;;4883122;29;20052;-81
2022/11/11 15:58:12;;;;;;;42.38;24.67;;;10.40;99.90;;;;;;4882527;29;20481;-80
2022/11/11 16:00:40;;;;;;;22.98;14.23;;;10.40;99.90;;;;;;4873747;29;20060;-82
2022/11/11 16:03:40;;;;;;;19.75;11.20;;;10.30;99.90;;;;;;4882736;29;20495;-82
2022/11/11 16:06:10;;;;;;;23.77;12.35;;;10.30;99.90;;;;;;4856706;29;20214;-81
2022/11/11 16:08:41;;;;;;;22.30;13.13;;;10.20;99.90;;;;;;4868931;29;20276;-80
2022/11/11 16:11:13;;;;;;;20.52;13.23;;;10.20;99.90;;;;;;4864767;29;20049;-81
2022/11/11 16:13:43;;;;;;;17.95;12.40;;;10.10;99.90;;;;;;4878213;29;20056;-80
2022/11/11 16:16:21;;;;;;;22.45;12.30;;;10.10;99.90;;;;;;4888046;29;20530;-79
2022/11/11 16:18:55;;;;;;;22.17;13.48;;;10.00;99.90;;;;;;4876139;29;20053;-81
2022/11/11 16:21:33;;;;;;;17.88;12.30;;;10.00;99.90;;;;;;4886543;29;20063;-81
2022/11/11 16:24:01;;;;;;;18.17;10.57;;;10.00;99.90;;;;;;4879791;29;20060;-80
2022/11/11 16:26:32;;;;;;;18.27;10.38;;;9.90;99.90;;;;;;4883929;29;20057;-80
2022/11/11 16:29:01;;;;;;;16.52;11.23;;;9.90;99.90;;;;;;4895588;29;20057;-80
2022/11/11 16:31:34;;;;;;;17.45;10.63;;;9.80;99.90;;;;;;4879431;29;20049;-80
2022/11/11 16:34:22;;;;;;;14.20;9.95;;;9.80;99.90;;;;;;4880776;29;20094;-81
2022/11/11 16:36:59;;;;;;;19.88;10.88;;;9.70;99.90;;;;;;4862121;29;20057;-81
2022/11/11 16:39:27;;;;;;;14.48;10.20;;;9.70;99.90;;;;;;4862758;29;20060;-79
2022/11/11 16:41:55;;;;;;;17.55;10.82;;;9.70;99.90;;;;;;4863284;29;20144;-80
2022/11/11 16:44:31;;;;;;;14.30;10.88;;;9.60;99.90;;;;;;4873242;29;20419;-77
2022/11/11 16:46:58;;;;;;;14.73;9.13;;;9.60;99.90;;;;;;4871161;29;20053;-79
2022/11/11 16:49:40;;;;;;;14.65;9.30;;;9.60;99.90;;;;;;4873951;29;20053;-79
2022/11/11 16:52:16;;;;;;;13.13;9.70;;;9.60;99.90;;;;;;4869276;29;20055;-79
2022/11/11 16:54:56;;;;;;;13.15;9.68;;;9.50;99.90;;;;;;4884057;29;20057;-79
2022/11/11 16:57:30;;;;;;;15.63;11.65;;;9.50;99.90;;;;;;4871287;29;20058;-79
2022/11/11 17:00:01;;;;;;;15.93;12.25;;;9.50;99.90;;;;;;4869680;29;20058;-79
2022/11/11 17:02:28;;;;;;;14.52;11.23;;;9.50;99.90;;;;;;4866190;29;20064;-81
2022/11/11 17:04:57;;;;;;;18.58;11.35;;;9.40;99.90;;;;;;4872263;29;20053;-79
2022/11/11 17:07:30;;;;;;;15.63;11.10;;;9.40;99.90;;;;;;4884129;29;20156;-79
2022/11/11 17:10:15;;;;;;;14.02;10.60;;;9.40;99.90;;;;;;4869787;29;20045;-81
2022/11/11 17:12:42;;;;;;;16.02;10.40;;;9.40;99.90;;;;;;4865767;29;20051;-80
2022/11/11 17:15:12;;;;;;;15.27;10.18;;;9.40;99.90;;;;;;4866919;29;20054;-80
2022/11/11 17:17:41;;;;;;;15.07;9.32;;;9.30;99.90;;;;;;4866935;29;20053;-78
2022/11/11 17:20:12;;;;;;;16.92;10.35;;;9.30;99.90;;;;;;4873868;29;20059;-81
2022/11/11 17:22:49;;;;;;;13.88;9.57;;;9.30;99.90;;;;;;4875605;29;20057;-79
2022/11/11 17:25:17;;;;;;;12.80;9.07;;;9.30;99.90;;;;;;4875121;29;20055;-81
2022/11/11 17:27:44;;;;;;;15.15;8.70;;;9.20;99.90;;;;;;4883033;29;20049;-80
2022/11/11 17:30:14;;;;;;;14.63;10.70;;;9.20;99.90;;;;;;4873877;29;20064;-79
2022/11/11 17:32:41;;;;;;;19.27;14.18;;;9.10;99.90;;;;;;4875861;29;20056;-79
2022/11/11 17:35:08;;;;;;;24.30;15.73;;;9.10;99.90;;;;;;4873739;29;20060;-80
2022/11/11 17:37:38;;;;;;;21.38;15.60;;;9.10;99.90;;;;;;4875837;29;20108;-78
2022/11/11 17:40:06;;;;;;;19.02;13.40;;;9.00;99.90;;;;;;4873402;29;20061;-80
2022/11/11 17:42:34;;;;;;;18.00;11.70;;;9.00;99.90;;;;;;4879607;29;20491;-79
2022/11/11 17:45:01;;;;;;;14.00;9.90;;;8.90;99.90;;;;;;4872125;29;20070;-79
2022/11/11 17:47:28;;;;;;;14.73;10.07;;;8.90;99.90;;;;;;4887468;29;20144;-81
2022/11/11 17:49:55;;;;;;;15.48;10.07;;;8.90;99.90;;;;;;4873036;29;20049;-81
2022/11/11 17:52:23;;;;;;;16.08;8.48;;;8.90;99.90;;;;;;4872744;29;20069;-80
2022/11/11 17:54:50;;;;;;;10.60;8.10;;;8.80;99.90;;;;;;4875763;29;20064;-77
2022/11/11 17:57:17;;;;;;;11.80;8.55;;;8.80;99.90;;;;;;4878993;29;20053;-79
2022/11/11 17:59:44;;;;;;;18.50;10.63;;;8.80;99.90;;;;;;4876281;29;20467;-78
2022/11/11 18:02:12;;;;;;;20.73;11.02;;;8.80;99.90;;;;;;4872179;29;20149;-79
2022/11/11 18:04:40;;;;;;;16.02;10.88;;;8.80;99.90;;;;;;4874814;29;20513;-77
2022/11/11 18:07:07;;;;;;;14.70;9.10;;;8.70;99.90;;;;;;4879537;29;20053;-79
2022/11/11 18:09:34;;;;;;;12.10;8.98;;;8.70;99.90;;;;;;4875595;29;20052;-80
2022/11/11 18:12:00;;;;;;;12.30;8.68;;;8.70;99.90;;;;;;4872242;29;20053;-78
2022/11/11 18:14:27;;;;;;;12.48;7.57;;;8.70;99.90;;;;;;4881450;29;20056;-79
2022/11/11 18:16:54;;;;;;;24.63;17.40;;;8.60;99.90;;;;;;4872487;29;20455;-80
2022/11/11 18:19:21;;;;;;;27.08;17.92;;;8.60;99.90;;;;;;4875566;29;20053;-80
2022/11/11 18:21:48;;;;;;;22.35;14.70;;;8.60;99.90;;;;;;4872912;29;20397;-80
2022/11/11 18:24:14;;;;;;;19.55;12.75;;;8.60;99.90;;;;;;4874063;29;20084;-79
2022/11/11 18:26:41;;;;;;;16.88;12.75;;;8.60;99.90;;;;;;4872027;29;20051;-80
2022/11/11 18:29:09;;;;;;;18.17;13.30;;;8.60;99.90;;;;;;4872163;29;20056;-79
2022/11/11 18:31:36;;;;;;;21.35;14.55;;;8.60;99.90;;;;;;4874831;29;20064;-79
2022/11/11 18:34:03;;;;;;;22.23;15.50;;;8.60;99.90;;;;;;4878542;29;20076;-80
2022/11/11 18:36:30;;;;;;;27.67;17.05;;;8.50;99.90;;;;;;4875006;29;20060;-79
2022/11/11 18:38:56;;;;;;;18.50;12.82;;;8.60;99.90;;;;;;4879458;29;20058;-80
2022/11/11 18:41:24;;;;;;;22.25;13.10;;;8.50;99.90;;;;;;4881329;29;20057;-80
2022/11/11 18:43:52;;;;;;;11.88;8.63;;;8.50;99.90;;;;;;4886074;29;20074;-80
2022/11/11 18:46:25;;;;;;;19.13;10.82;;;8.50;99.90;;;;;;4874356;29;20053;-79
2022/11/11 18:48:57;;;;;;;15.57;10.43;;;8.50;99.90;;;;;;4879930;29;20057;-80
2022/11/11 18:51:24;;;;;;;10.88;7.50;;;8.50;99.90;;;;;;4872367;29;20131;-81
2022/11/11 18:53:51;;;;;;;19.02;11.60;;;8.50;99.90;;;;;;4873777;29;20060;-79
2022/11/11 18:56:20;;;;;;;13.68;9.63;;;8.40;99.90;;;;;;4878703;29;20056;-80
2022/11/11 18:58:49;;;;;;;12.82;7.43;;;8.40;99.90;;;;;;4873995;29;20050;-80
2022/11/11 19:01:24;;;;;;;15.27;8.00;;;8.40;99.90;;;;;;4872425;29;20458;-77
2022/11/11 19:04:01;;;;;;;10.55;7.50;;;8.30;99.90;;;;;;4885255;29;20099;-79
2022/11/11 19:06:29;;;;;;;10.68;7.35;;;8.30;99.90;;;;;;4873703;29;20049;-78
2022/11/11 19:09:10;;;;;;;11.25;7.68;;;8.30;99.90;;;;;;4872776;29;20063;-79
2022/11/11 19:11:40;;;;;;;8.93;7.82;;;8.30;99.90;;;;;;4877886;29;20053;-81
2022/11/11 19:14:08;;;;;;;;;;;8.30;99.90;;;;;;4871731;29;20136;-80
2022/11/11 19:16:36;;;;;;;10.68;8.93;;;8.20;99.90;;;;;;4871196;29;19943;-78
2022/11/11 19:19:03;;;;;;;11.52;9.13;;;8.20;99.90;;;;;;4870895;29;20053;-78
2022/11/11 19:21:33;;;;;;;12.63;8.70;;;8.20;99.90;;;;;;4880668;29;20063;-79
2022/11/11 19:24:01;;;;;;;12.32;7.53;;;8.20;99.90;;;;;;4871269;29;20058;-80
2022/11/11 19:26:29;;;;;;;9.82;7.28;;;8.20;99.90;;;;;;4873439;29;20097;-78
2022/11/11 19:28:58;;;;;;;12.18;7.15;;;8.10;99.90;;;;;;4871729;29;20053;-80
2022/11/11 19:31:27;;;;;;;11.02;7.25;;;8.20;99.90;;;;;;4871501;29;20061;-80
2022/11/11 19:33:55;;;;;;;13.03;6.63;;;8.20;99.90;;;;;;4871822;29;20053;-79
2022/11/11 19:36:26;;;;;;;10.45;7.45;;;8.20;99.90;;;;;;4871905;29;20302;-79
2022/11/11 19:38:54;;;;;;;11.80;7.28;;;8.20;99.90;;;;;;4871886;29;20060;-80
2022/11/11 19:41:23;;;;;;;9.52;6.70;;;8.10;99.90;;;;;;4872815;29;20403;-80
2022/11/11 19:43:55;;;;;;;8.57;6.63;;;8.10;99.90;;;;;;4873803;29;20054;-80
2022/11/11 19:46:23;;;;;;;12.50;6.95;;;8.10;99.90;;;;;;4869920;29;20101;-79
2022/11/11 19:48:53;;;;;;;14.82;9.25;;;8.10;99.90;;;;;;4880653;29;20049;-81
2022/11/11 19:51:22;;;;;;;15.50;8.57;;;8.00;99.90;;;;;;4870667;29;20054;-80
2022/11/11 19:53:49;;;;;;;12.80;8.00;;;8.00;99.90;;;;;;4874315;29;20060;-78